sensor_id;sensor_type;location;lat;lon;timestamp;pressure;altitude;pressure_sealevel;temperature;humidity
8641;BME280;4358;42.100;25.222;2023-04-24T00:01:58;99945.09;;;11.13;100.00
8641;BME280;4358;42.100;25.222;2023-04-24T00:04:26;99951.59;;;11.09;100.00
8641;BME280;4358;42.100;25.222;2023-04-24T00:06:53;99945.75;;;11.03;100.00
8641;BME280;4358;42.100;25.222;2023-04-24T00:09:22;99949.88;;;11.08;100.00
8641;BME280;4358;42.100;25.222;2023-04-24T00:11:49;99939.66;;;11.01;100.00
8641;BME280;4358;42.100;25.222;2023-04-24T00:14:16;99932.56;;;11.02;100.00
8641;BME280;4358;42.100;25.222;2023-04-24T00:16:43;99937.25;;;10.98;100.00
8641;BME280;4358;42.100;25.222;2023-04-24T00:19:10;99940.44;;;11.03;100.00
8641;BME280;4358;42.100;25.222;2023-04-24T00:21:39;99938.72;;;11.02;100.00
8641;BME280;4358;42.100;25.222;2023-04-24T00:24:06;99936.25;;;10.99;100.00
8641;BME280;4358;42.100;25.222;2023-04-24T00:26:34;99947.88;;;10.98;100.00
8641;BME280;4358;42.100;25.222;2023-04-24T00:29:01;99941.03;;;10.94;100.00
8641;BME280;4358;42.100;25.222;2023-04-24T00:31:28;99947.81;;;10.86;100.00
8641;BME280;4358;42.100;25.222;2023-04-24T00:33:55;99953.09;;;10.73;100.00
8641;BME280;4358;42.100;25.222;2023-04-24T00:36:22;99955.19;;;10.68;100.00
8641;BME280;4358;42.100;25.222;2023-04-24T00:38:50;99955.91;;;10.57;100.00
8641;BME280;4358;42.100;25.222;2023-04-24T00:41:16;99956.84;;;10.44;100.00
8641;BME280;4358;42.100;25.222;2023-04-24T00:43:43;99949.81;;;10.43;100.00
8641;BME280;4358;42.100;25.222;2023-04-24T00:46:11;99936.69;;;10.41;100.00
8641;BME280;4358;42.100;25.222;2023-04-24T00:48:39;99940.91;;;10.44;100.00
8641;BME280;4358;42.100;25.222;2023-04-24T00:51:06;99936.22;;;10.35;100.00
8641;BME280;4358;42.100;25.222;2023-04-24T00:53:33;99928.44;;;10.32;100.00
8641;BME280;4358;42.100;25.222;2023-04-24T00:56:01;99933.97;;;10.29;100.00
8641;BME280;4358;42.100;25.222;2023-04-24T00:58:29;99935.66;;;10.30;100.00
8641;BME280;4358;42.100;25.222;2023-04-24T01:00:56;99933.31;;;10.25;100.00
8641;BME280;4358;42.100;25.222;2023-04-24T01:03:28;99931.91;;;10.19;100.00
8641;BME280;4358;42.100;25.222;2023-04-24T01:05:55;99925.25;;;10.27;100.00
8641;BME280;4358;42.100;25.222;2023-04-24T01:08:24;99928.84;;;10.11;100.00
8641;BME280;4358;42.100;25.222;2023-04-24T01:10:51;99925.47;;;10.09;100.00
8641;BME280;4358;42.100;25.222;2023-04-24T01:13:20;99936.53;;;10.16;100.00
8641;BME280;4358;42.100;25.222;2023-04-24T01:15:47;99937.56;;;10.13;100.00
8641;BME280;4358;42.100;25.222;2023-04-24T01:18:14;99927.56;;;10.04;100.00
8641;BME280;4358;42.100;25.222;2023-04-24T01:20:42;99928.00;;;9.70;100.00
8641;BME280;4358;42.100;25.222;2023-04-24T01:23:11;99923.66;;;9.55;100.00
8641;BME280;4358;42.100;25.222;2023-04-24T01:25:38;99923.47;;;9.58;100.00
8641;BME280;4358;42.100;25.222;2023-04-24T01:28:05;99911.38;;;9.68;100.00
8641;BME280;4358;42.100;25.222;2023-04-24T01:30:33;99934.03;;;9.86;100.00
8641;BME280;4358;42.100;25.222;2023-04-24T01:33:01;99936.38;;;9.91;100.00
8641;BME280;4358;42.100;25.222;2023-04-24T01:35:28;99931.56;;;9.97;100.00
8641;BME280;4358;42.100;25.222;2023-04-24T01:37:54;99937.06;;;9.94;100.00
8641;BME280;4358;42.100;25.222;2023-04-24T01:40:23;99936.59;;;9.88;100.00
8641;BME280;4358;42.100;25.222;2023-04-24T01:42:50;99931.94;;;9.91;100.00
8641;BME280;4358;42.100;25.222;2023-04-24T01:45:17;99930.63;;;9.84;100.00
8641;BME280;4358;42.100;25.222;2023-04-24T01:47:44;99932.53;;;9.82;100.00
8641;BME280;4358;42.100;25.222;2023-04-24T01:50:11;99927.81;;;9.73;100.00
8641;BME280;4358;42.100;25.222;2023-04-24T01:52:38;99922.53;;;9.73;100.00
8641;BME280;4358;42.100;25.222;2023-04-24T01:55:06;99925.72;;;9.78;100.00
8641;BME280;4358;42.100;25.222;2023-04-24T01:57:35;99931.03;;;9.78;100.00
8641;BME280;4358;42.100;25.222;2023-04-24T02:00:03;99944.84;;;9.69;100.00
8641;BME280;4358;42.100;25.222;2023-04-24T02:02:30;99945.13;;;9.64;100.00
8641;BME280;4358;42.100;25.222;2023-04-24T02:04:57;99948.28;;;9.57;100.00
8641;BME280;4358;42.100;25.222;2023-04-24T02:07:24;99948.09;;;9.46;100.00
8641;BME280;4358;42.100;25.222;2023-04-24T02:09:51;99950.34;;;9.23;100.00
8641;BME280;4358;42.100;25.222;2023-04-24T02:12:18;99943.53;;;9.19;100.00
8641;BME280;4358;42.100;25.222;2023-04-24T02:14:46;99941.16;;;9.29;100.00
8641;BME280;4358;42.100;25.222;2023-04-24T02:17:13;99948.25;;;9.28;100.00
8641;BME280;4358;42.100;25.222;2023-04-24T02:19:41;99943.22;;;9.10;100.00
8641;BME280;4358;42.100;25.222;2023-04-24T02:22:08;99951.94;;;8.82;100.00
8641;BME280;4358;42.100;25.222;2023-04-24T02:24:36;99946.88;;;8.93;100.00
8641;BME280;4358;42.100;25.222;2023-04-24T02:27:03;99951.06;;;9.11;100.00
8641;BME280;4358;42.100;25.222;2023-04-24T02:29:30;99943.53;;;9.19;100.00
8641;BME280;4358;42.100;25.222;2023-04-24T02:31:58;99935.59;;;9.19;100.00
8641;BME280;4358;42.100;25.222;2023-04-24T02:34:25;99939.44;;;9.28;100.00
8641;BME280;4358;42.100;25.222;2023-04-24T02:36:52;99944.66;;;9.29;100.00
8641;BME280;4358;42.100;25.222;2023-04-24T02:39:19;99936.81;;;9.28;100.00
8641;BME280;4358;42.100;25.222;2023-04-24T02:41:46;99941.16;;;9.29;100.00
8641;BME280;4358;42.100;25.222;2023-04-24T02:44:13;99943.16;;;9.25;100.00
8641;BME280;4358;42.100;25.222;2023-04-24T02:46:39;99939.44;;;9.14;100.00
8641;BME280;4358;42.100;25.222;2023-04-24T02:49:08;99938.78;;;9.10;100.00
8641;BME280;4358;42.100;25.222;2023-04-24T02:51:37;99936.50;;;9.04;100.00
8641;BME280;4358;42.100;25.222;2023-04-24T02:54:07;99937.75;;;8.69;100.00
8641;BME280;4358;42.100;25.222;2023-04-24T02:56:34;99934.31;;;8.53;100.00
8641;BME280;4358;42.100;25.222;2023-04-24T02:59:01;99932.59;;;8.52;100.00
8641;BME280;4358;42.100;25.222;2023-04-24T03:01:28;99931.47;;;8.56;100.00
8641;BME280;4358;42.100;25.222;2023-04-24T03:03:55;99930.97;;;8.49;100.00
8641;BME280;4358;42.100;25.222;2023-04-24T03:06:23;99927.03;;;8.56;100.00
8641;BME280;4358;42.100;25.222;2023-04-24T03:08:50;99929.41;;;8.61;100.00
8641;BME280;4358;42.100;25.222;2023-04-24T03:11:16;99922.25;;;8.63;100.00
8641;BME280;4358;42.100;25.222;2023-04-24T03:13:43;99918.47;;;8.67;100.00
8641;BME280;4358;42.100;25.222;2023-04-24T03:16:10;99925.09;;;8.74;100.00
8641;BME280;4358;42.100;25.222;2023-04-24T03:18:37;99922.00;;;8.81;100.00
8641;BME280;4358;42.100;25.222;2023-04-24T03:21:03;99917.63;;;8.80;100.00
8641;BME280;4358;42.100;25.222;2023-04-24T03:23:32;99911.41;;;8.81;100.00
8641;BME280;4358;42.100;25.222;2023-04-24T03:25:58;99916.31;;;8.73;100.00
8641;BME280;4358;42.100;25.222;2023-04-24T03:28:26;99913.16;;;8.67;100.00
8641;BME280;4358;42.100;25.222;2023-04-24T03:30:52;99913.03;;;8.54;100.00
8641;BME280;4358;42.100;25.222;2023-04-24T03:33:20;99918.09;;;8.43;100.00
8641;BME280;4358;42.100;25.222;2023-04-24T03:35:46;99923.47;;;8.41;100.00
8641;BME280;4358;42.100;25.222;2023-04-24T03:38:13;99927.06;;;8.40;100.00
8641;BME280;4358;42.100;25.222;2023-04-24T03:40:41;99921.47;;;8.31;100.00
8641;BME280;4358;42.100;25.222;2023-04-24T03:43:08;99931.31;;;8.27;100.00
8641;BME280;4358;42.100;25.222;2023-04-24T03:45:35;99933.63;;;8.33;100.00
8641;BME280;4358;42.100;25.222;2023-04-24T03:48:02;99933.34;;;8.22;100.00
8641;BME280;4358;42.100;25.222;2023-04-24T03:50:29;99942.06;;;8.24;100.00
8641;BME280;4358;42.100;25.222;2023-04-24T03:52:56;99949.59;;;8.32;100.00
8641;BME280;4358;42.100;25.222;2023-04-24T03:55:23;99948.22;;;8.25;100.00
8641;BME280;4358;42.100;25.222;2023-04-24T03:57:51;99949.06;;;8.25;100.00
8641;BME280;4358;42.100;25.222;2023-04-24T04:00:18;99948.28;;;8.39;100.00
8641;BME280;4358;42.100;25.222;2023-04-24T04:02:46;99951.88;;;8.38;100.00
8641;BME280;4358;42.100;25.222;2023-04-24T04:05:13;99943.09;;;8.37;100.00
8641;BME280;4358;42.100;25.222;2023-04-24T04:07:40;99955.34;;;8.54;100.00
8641;BME280;4358;42.100;25.222;2023-04-24T04:10:07;99942.75;;;8.43;100.00
8641;BME280;4358;42.100;25.222;2023-04-24T04:12:34;99942.03;;;8.56;100.00
8641;BME280;4358;42.100;25.222;2023-04-24T04:15:03;99948.69;;;8.63;100.00
8641;BME280;4358;42.100;25.222;2023-04-24T04:17:31;99947.13;;;8.59;100.00
8641;BME280;4358;42.100;25.222;2023-04-24T04:19:58;99951.06;;;8.67;100.00
8641;BME280;4358;42.100;25.222;2023-04-24T04:22:25;99946.09;;;8.77;100.00
8641;BME280;4358;42.100;25.222;2023-04-24T04:24:52;99953.66;;;8.83;100.00
8641;BME280;4358;42.100;25.222;2023-04-24T04:27:19;99950.53;;;8.76;100.00
8641;BME280;4358;42.100;25.222;2023-04-24T04:29:46;99957.03;;;8.71;100.00
8641;BME280;4358;42.100;25.222;2023-04-24T04:32:15;99958.97;;;8.83;100.00
8641;BME280;4358;42.100;25.222;2023-04-24T04:34:42;99961.25;;;8.89;100.00
8641;BME280;4358;42.100;25.222;2023-04-24T04:37:10;99959.53;;;8.88;100.00
8641;BME280;4358;42.100;25.222;2023-04-24T04:39:38;99955.56;;;8.95;100.00
8641;BME280;4358;42.100;25.222;2023-04-24T04:42:05;99963.06;;;9.03;100.00
8641;BME280;4358;42.100;25.222;2023-04-24T04:44:32;99967.22;;;9.07;100.00
8641;BME280;4358;42.100;25.222;2023-04-24T04:47:01;99968.22;;;9.34;100.00
8641;BME280;4358;42.100;25.222;2023-04-24T04:49:32;99968.22;;;9.48;100.00
8641;BME280;4358;42.100;25.222;2023-04-24T04:51:59;99976.56;;;9.70;100.00
8641;BME280;4358;42.100;25.222;2023-04-24T04:54:26;99982.59;;;9.87;100.00
8641;BME280;4358;42.100;25.222;2023-04-24T04:56:53;99981.84;;;9.99;100.00
8641;BME280;4358;42.100;25.222;2023-04-24T04:59:20;99991.00;;;10.22;100.00
8641;BME280;4358;42.100;25.222;2023-04-24T05:01:47;99974.47;;;10.45;100.00
8641;BME280;4358;42.100;25.222;2023-04-24T05:04:14;99980.81;;;10.69;100.00
8641;BME280;4358;42.100;25.222;2023-04-24T05:06:42;99977.97;;;10.85;100.00
8641;BME280;4358;42.100;25.222;2023-04-24T05:09:09;99977.59;;;11.03;100.00
8641;BME280;4358;42.100;25.222;2023-04-24T05:11:36;99970.00;;;11.24;100.00
8641;BME280;4358;42.100;25.222;2023-04-24T05:14:03;99975.28;;;11.37;100.00
8641;BME280;4358;42.100;25.222;2023-04-24T05:16:29;99976.34;;;11.47;100.00
8641;BME280;4358;42.100;25.222;2023-04-24T05:18:57;99972.53;;;11.51;100.00
8641;BME280;4358;42.100;25.222;2023-04-24T05:21:24;99965.94;;;11.69;100.00
8641;BME280;4358;42.100;25.222;2023-04-24T05:23:52;99972.09;;;11.95;100.00
8641;BME280;4358;42.100;25.222;2023-04-24T05:26:19;99975.69;;;11.94;100.00
8641;BME280;4358;42.100;25.222;2023-04-24T05:28:46;99978.88;;;11.99;100.00
8641;BME280;4358;42.100;25.222;2023-04-24T05:31:12;99973.97;;;12.06;100.00
8641;BME280;4358;42.100;25.222;2023-04-24T05:33:39;99982.88;;;12.17;100.00
8641;BME280;4358;42.100;25.222;2023-04-24T05:36:06;99982.31;;;12.25;100.00
8641;BME280;4358;42.100;25.222;2023-04-24T05:38:33;99982.84;;;12.30;100.00
8641;BME280;4358;42.100;25.222;2023-04-24T05:41:01;99977.50;;;12.30;100.00
8641;BME280;4358;42.100;25.222;2023-04-24T05:43:28;99973.25;;;12.40;100.00
8641;BME280;4358;42.100;25.222;2023-04-24T05:45:55;99974.81;;;12.43;100.00
8641;BME280;4358;42.100;25.222;2023-04-24T05:48:22;99981.06;;;12.54;100.00
8641;BME280;4358;42.100;25.222;2023-04-24T05:50:48;99979.34;;;12.53;100.00
8641;BME280;4358;42.100;25.222;2023-04-24T05:53:16;99972.38;;;12.63;100.00
8641;BME280;4358;42.100;25.222;2023-04-24T05:55:43;99968.41;;;12.69;100.00
8641;BME280;4358;42.100;25.222;2023-04-24T05:58:11;99974.94;;;13.00;100.00
8641;BME280;4358;42.100;25.222;2023-04-24T06:00:38;99983.75;;;13.13;100.00
8641;BME280;4358;42.100;25.222;2023-04-24T06:03:08;99972.09;;;13.14;100.00
8641;BME280;4358;42.100;25.222;2023-04-24T06:05:35;99975.75;;;13.24;100.00
8641;BME280;4358;42.100;25.222;2023-04-24T06:08:02;99971.91;;;13.28;100.00
8641;BME280;4358;42.100;25.222;2023-04-24T06:10:28;99973.13;;;13.35;100.00
8641;BME280;4358;42.100;25.222;2023-04-24T06:12:55;99968.78;;;13.56;100.00
8641;BME280;4358;42.100;25.222;2023-04-24T06:15:28;99975.94;;;13.67;100.00
8641;BME280;4358;42.100;25.222;2023-04-24T06:17:56;99959.09;;;13.67;100.00
8641;BME280;4358;42.100;25.222;2023-04-24T06:20:23;99971.09;;;13.94;100.00
8641;BME280;4358;42.100;25.222;2023-04-24T06:22:50;99967.59;;;13.83;100.00
8641;BME280;4358;42.100;25.222;2023-04-24T06:25:17;99963.22;;;13.93;100.00
8641;BME280;4358;42.100;25.222;2023-04-24T06:27:44;99974.25;;;14.22;100.00
8641;BME280;4358;42.100;25.222;2023-04-24T06:30:11;99957.34;;;14.32;100.00
8641;BME280;4358;42.100;25.222;2023-04-24T06:32:40;99947.38;;;14.46;100.00
8641;BME280;4358;42.100;25.222;2023-04-24T06:35:07;99954.81;;;14.74;100.00
8641;BME280;4358;42.100;25.222;2023-04-24T06:37:35;99959.16;;;14.86;100.00
8641;BME280;4358;42.100;25.222;2023-04-24T06:40:03;99965.06;;;14.90;100.00
8641;BME280;4358;42.100;25.222;2023-04-24T06:42:31;99961.38;;;15.02;100.00
8641;BME280;4358;42.100;25.222;2023-04-24T06:44:58;99956.16;;;15.00;100.00
8641;BME280;4358;42.100;25.222;2023-04-24T06:47:25;99951.66;;;15.01;100.00
8641;BME280;4358;42.100;25.222;2023-04-24T06:49:53;99953.03;;;14.95;100.00
8641;BME280;4358;42.100;25.222;2023-04-24T06:52:20;99937.50;;;14.89;100.00
8641;BME280;4358;42.100;25.222;2023-04-24T06:54:47;99957.19;;;14.88;100.00
8641;BME280;4358;42.100;25.222;2023-04-24T06:57:14;99956.25;;;14.78;100.00
8641;BME280;4358;42.100;25.222;2023-04-24T06:59:42;99958.53;;;14.82;100.00
8641;BME280;4358;42.100;25.222;2023-04-24T07:02:09;99963.22;;;14.69;100.00
8641;BME280;4358;42.100;25.222;2023-04-24T07:04:36;99957.78;;;14.60;100.00
8641;BME280;4358;42.100;25.222;2023-04-24T07:07:04;99950.41;;;14.84;100.00
8641;BME280;4358;42.100;25.222;2023-04-24T07:09:32;99959.53;;;15.02;100.00
8641;BME280;4358;42.100;25.222;2023-04-24T07:12:00;99954.56;;;15.18;100.00
8641;BME280;4358;42.100;25.222;2023-04-24T07:14:27;99954.50;;;15.30;100.00
8641;BME280;4358;42.100;25.222;2023-04-24T07:16:54;99948.19;;;15.31;100.00
8641;BME280;4358;42.100;25.222;2023-04-24T07:19:23;99950.34;;;15.37;100.00
8641;BME280;4358;42.100;25.222;2023-04-24T07:21:49;99945.00;;;15.57;100.00
8641;BME280;4358;42.100;25.222;2023-04-24T07:24:17;99955.44;;;15.91;100.00
8641;BME280;4358;42.100;25.222;2023-04-24T07:26:44;99950.69;;;16.04;100.00
8641;BME280;4358;42.100;25.222;2023-04-24T07:29:12;99954.75;;;15.98;100.00
8641;BME280;4358;42.100;25.222;2023-04-24T07:31:39;99950.44;;;15.77;100.00
8641;BME280;4358;42.100;25.222;2023-04-24T07:34:06;99945.88;;;15.67;100.00
8641;BME280;4358;42.100;25.222;2023-04-24T07:36:33;99937.91;;;15.77;100.00
8641;BME280;4358;42.100;25.222;2023-04-24T07:39:00;99943.69;;;15.82;100.00
8641;BME280;4358;42.100;25.222;2023-04-24T07:41:28;99940.03;;;15.83;100.00
8641;BME280;4358;42.100;25.222;2023-04-24T07:43:55;99947.31;;;15.51;100.00
8641;BME280;4358;42.100;25.222;2023-04-24T07:46:22;99948.00;;;15.64;100.00
8641;BME280;4358;42.100;25.222;2023-04-24T07:48:50;99946.41;;;15.92;100.00
8641;BME280;4358;42.100;25.222;2023-04-24T07:51:17;99952.69;;;16.12;100.00
8641;BME280;4358;42.100;25.222;2023-04-24T07:53:44;99948.75;;;16.16;100.00
8641;BME280;4358;42.100;25.222;2023-04-24T07:56:11;99947.50;;;16.29;100.00
8641;BME280;4358;42.100;25.222;2023-04-24T07:58:39;99957.22;;;16.21;100.00
8641;BME280;4358;42.100;25.222;2023-04-24T08:01:06;99947.25;;;16.42;100.00
8641;BME280;4358;42.100;25.222;2023-04-24T08:03:33;99951.53;;;16.73;98.66
8641;BME280;4358;42.100;25.222;2023-04-24T08:06:00;99959.59;;;16.73;98.81
8641;BME280;4358;42.100;25.222;2023-04-24T08:08:27;99955.91;;;16.65;98.50
8641;BME280;4358;42.100;25.222;2023-04-24T08:10:54;99956.06;;;16.82;99.23
8641;BME280;4358;42.100;25.222;2023-04-24T08:13:21;99958.97;;;17.18;97.60
8641;BME280;4358;42.100;25.222;2023-04-24T08:15:50;99962.81;;;17.15;93.42
8641;BME280;4358;42.100;25.222;2023-04-24T08:18:16;99961.41;;;17.21;93.94
8641;BME280;4358;42.100;25.222;2023-04-24T08:20:43;99953.47;;;17.29;93.66
8641;BME280;4358;42.100;25.222;2023-04-24T08:23:10;99953.84;;;17.53;91.49
8641;BME280;4358;42.100;25.222;2023-04-24T08:25:37;99947.69;;;17.90;90.61
8641;BME280;4358;42.100;25.222;2023-04-24T08:28:05;99945.88;;;18.08;86.91
8641;BME280;4358;42.100;25.222;2023-04-24T08:30:33;99943.78;;;18.29;86.49
8641;BME280;4358;42.100;25.222;2023-04-24T08:33:01;99946.00;;;18.34;86.32
8641;BME280;4358;42.100;25.222;2023-04-24T08:35:28;99926.13;;;18.44;85.58
8641;BME280;4358;42.100;25.222;2023-04-24T08:37:54;99923.19;;;18.65;85.06
8641;BME280;4358;42.100;25.222;2023-04-24T08:40:27;99912.03;;;18.60;82.82
8641;BME280;4358;42.100;25.222;2023-04-24T08:42:55;99908.81;;;18.92;80.48
8641;BME280;4358;42.100;25.222;2023-04-24T08:45:23;99900.72;;;19.10;79.75
8641;BME280;4358;42.100;25.222;2023-04-24T08:47:52;99893.38;;;19.20;80.40
8641;BME280;4358;42.100;25.222;2023-04-24T08:50:21;99893.31;;;19.37;79.58
8641;BME280;4358;42.100;25.222;2023-04-24T08:52:50;99890.59;;;19.29;81.56
8641;BME280;4358;42.100;25.222;2023-04-24T08:55:19;99881.56;;;19.38;77.71
8641;BME280;4358;42.100;25.222;2023-04-24T08:57:50;99892.16;;;19.66;75.09
8641;BME280;4358;42.100;25.222;2023-04-24T09:00:18;99883.47;;;19.80;73.10
8641;BME280;4358;42.100;25.222;2023-04-24T09:02:47;99875.94;;;19.83;73.59
8641;BME280;4358;42.100;25.222;2023-04-24T09:05:16;99872.47;;;19.99;73.62
8641;BME280;4358;42.100;25.222;2023-04-24T09:07:49;99864.00;;;19.94;72.46
8641;BME280;4358;42.100;25.222;2023-04-24T09:10:20;99860.13;;;19.88;72.48
8641;BME280;4358;42.100;25.222;2023-04-24T09:12:48;99860.63;;;19.92;73.91
8641;BME280;4358;42.100;25.222;2023-04-24T09:15:16;99857.59;;;19.95;72.22
8641;BME280;4358;42.100;25.222;2023-04-24T09:17:43;99835.84;;;19.80;75.79
8641;BME280;4358;42.100;25.222;2023-04-24T09:20:10;99843.19;;;20.20;74.36
8641;BME280;4358;42.100;25.222;2023-04-24T09:22:37;99847.28;;;20.33;73.54
8641;BME280;4358;42.100;25.222;2023-04-24T09:25:06;99846.59;;;20.30;72.38
8641;BME280;4358;42.100;25.222;2023-04-24T09:27:34;99831.59;;;20.20;75.32
8641;BME280;4358;42.100;25.222;2023-04-24T09:30:02;99835.44;;;20.09;74.89
8641;BME280;4358;42.100;25.222;2023-04-24T09:32:29;99834.59;;;20.09;78.15
8641;BME280;4358;42.100;25.222;2023-04-24T09:35:07;99835.44;;;20.25;75.94
8641;BME280;4358;42.100;25.222;2023-04-24T09:37:36;99828.41;;;20.24;75.84
8641;BME280;4358;42.100;25.222;2023-04-24T09:40:14;99822.88;;;20.50;73.54
8641;BME280;4358;42.100;25.222;2023-04-24T09:42:44;99822.38;;;20.63;72.87
8641;BME280;4358;42.100;25.222;2023-04-24T09:45:12;99822.22;;;20.56;73.59
8641;BME280;4358;42.100;25.222;2023-04-24T09:47:40;99804.34;;;20.55;72.78
8641;BME280;4358;42.100;25.222;2023-04-24T09:50:15;99815.28;;;20.78;71.45
8641;BME280;4358;42.100;25.222;2023-04-24T09:52:43;99815.44;;;21.09;70.29
8641;BME280;4358;42.100;25.222;2023-04-24T09:55:14;99816.38;;;21.40;70.38
8641;BME280;4358;42.100;25.222;2023-04-24T09:57:50;99803.56;;;21.73;67.18
8641;BME280;4358;42.100;25.222;2023-04-24T10:00:22;99796.13;;;21.75;64.97
8641;BME280;4358;42.100;25.222;2023-04-24T10:02:56;99795.81;;;21.70;66.68
8641;BME280;4358;42.100;25.222;2023-04-24T10:05:24;99775.16;;;21.77;65.15
8641;BME280;4358;42.100;25.222;2023-04-24T10:07:51;99802.28;;;21.61;65.31
8641;BME280;4358;42.100;25.222;2023-04-24T10:10:19;99788.03;;;21.75;66.33
8641;BME280;4358;42.100;25.222;2023-04-24T10:12:46;99779.53;;;21.86;63.08
8641;BME280;4358;42.100;25.222;2023-04-24T10:15:14;99771.81;;;21.75;65.15
8641;BME280;4358;42.100;25.222;2023-04-24T10:17:47;99765.81;;;21.65;68.07
8641;BME280;4358;42.100;25.222;2023-04-24T10:20:19;99769.97;;;22.07;63.86
8641;BME280;4358;42.100;25.222;2023-04-24T10:22:48;99757.22;;;22.38;61.47
8641;BME280;4358;42.100;25.222;2023-04-24T10:25:17;99761.19;;;22.50;60.02
8641;BME280;4358;42.100;25.222;2023-04-24T10:27:47;99755.50;;;22.45;60.25
8641;BME280;4358;42.100;25.222;2023-04-24T10:30:15;99755.38;;;22.38;60.18
8641;BME280;4358;42.100;25.222;2023-04-24T10:32:42;99753.84;;;22.36;59.46
8641;BME280;4358;42.100;25.222;2023-04-24T10:35:09;99754.88;;;22.35;59.36
8641;BME280;4358;42.100;25.222;2023-04-24T10:37:38;99749.63;;;22.56;57.64
8641;BME280;4358;42.100;25.222;2023-04-24T10:40:06;99749.16;;;22.30;56.83
8641;BME280;4358;42.100;25.222;2023-04-24T10:42:34;99739.03;;;22.32;57.09
8641;BME280;4358;42.100;25.222;2023-04-24T10:45:06;99738.34;;;22.30;57.26
8641;BME280;4358;42.100;25.222;2023-04-24T10:47:40;99739.88;;;22.10;58.54
8641;BME280;4358;42.100;25.222;2023-04-24T10:50:08;99741.97;;;22.22;57.89
8641;BME280;4358;42.100;25.222;2023-04-24T10:52:45;99738.44;;;22.59;56.04
8641;BME280;4358;42.100;25.222;2023-04-24T10:55:12;99743.19;;;22.57;55.93
8641;BME280;4358;42.100;25.222;2023-04-24T10:58:03;99748.75;;;22.78;55.35
8641;BME280;4358;42.100;25.222;2023-04-24T11:00:31;99742.22;;;22.88;54.55
8641;BME280;4358;42.100;25.222;2023-04-24T11:02:58;99741.59;;;23.00;53.63
8641;BME280;4358;42.100;25.222;2023-04-24T11:05:49;99731.78;;;23.14;52.97
8641;BME280;4358;42.100;25.222;2023-04-24T11:08:25;99734.97;;;23.32;53.17
8641;BME280;4358;42.100;25.222;2023-04-24T11:11:00;99730.84;;;23.36;52.30
8641;BME280;4358;42.100;25.222;2023-04-24T11:14:09;99721.78;;;23.58;51.92
8641;BME280;4358;42.100;25.222;2023-04-24T11:16:42;99720.13;;;23.79;51.26
8641;BME280;4358;42.100;25.222;2023-04-24T11:19:18;99715.16;;;24.03;50.49
8641;BME280;4358;42.100;25.222;2023-04-24T11:21:47;99698.38;;;23.93;49.26
8641;BME280;4358;42.100;25.222;2023-04-24T11:24:31;99684.25;;;23.98;49.13
8641;BME280;4358;42.100;25.222;2023-04-24T11:27:03;99675.09;;;23.99;50.47
8641;BME280;4358;42.100;25.222;2023-04-24T11:29:49;99674.75;;;23.87;49.79
8641;BME280;4358;42.100;25.222;2023-04-24T11:32:28;99664.25;;;23.78;50.38
8641;BME280;4358;42.100;25.222;2023-04-24T11:34:57;99659.84;;;23.98;50.20
8641;BME280;4358;42.100;25.222;2023-04-24T11:37:26;99657.88;;;24.06;49.13
8641;BME280;4358;42.100;25.222;2023-04-24T11:39:54;99655.75;;;24.02;49.62
8641;BME280;4358;42.100;25.222;2023-04-24T11:42:22;99653.41;;;23.78;50.00
8641;BME280;4358;42.100;25.222;2023-04-24T11:44:52;99639.09;;;23.62;50.10
8641;BME280;4358;42.100;25.222;2023-04-24T11:47:19;99647.53;;;23.53;51.75
8641;BME280;4358;42.100;25.222;2023-04-24T11:49:50;99654.38;;;23.49;51.78
8641;BME280;4358;42.100;25.222;2023-04-24T11:52:17;99651.09;;;23.53;51.30
8641;BME280;4358;42.100;25.222;2023-04-24T11:54:48;99638.91;;;23.64;51.45
8641;BME280;4358;42.100;25.222;2023-04-24T11:57:16;99641.28;;;23.52;51.75
8641;BME280;4358;42.100;25.222;2023-04-24T11:59:45;99642.31;;;23.73;52.31
8641;BME280;4358;42.100;25.222;2023-04-24T12:02:20;99636.06;;;23.93;51.26
8641;BME280;4358;42.100;25.222;2023-04-24T12:04:48;99622.16;;;23.82;51.63
8641;BME280;4358;42.100;25.222;2023-04-24T12:07:15;99599.16;;;23.71;51.93
8641;BME280;4358;42.100;25.222;2023-04-24T12:09:43;99605.22;;;23.73;52.24
8641;BME280;4358;42.100;25.222;2023-04-24T12:12:11;99604.03;;;24.03;51.53
8641;BME280;4358;42.100;25.222;2023-04-24T12:14:48;99602.94;;;23.98;51.66
8641;BME280;4358;42.100;25.222;2023-04-24T12:17:15;99598.84;;;24.08;51.73
8641;BME280;4358;42.100;25.222;2023-04-24T12:19:46;99597.06;;;24.43;51.00
8641;BME280;4358;42.100;25.222;2023-04-24T12:22:15;99584.25;;;24.31;51.74
8641;BME280;4358;42.100;25.222;2023-04-24T12:25:00;99577.03;;;24.17;52.71
8641;BME280;4358;42.100;25.222;2023-04-24T12:27:31;99578.19;;;24.07;52.98
8641;BME280;4358;42.100;25.222;2023-04-24T12:29:59;99578.41;;;24.06;53.09
8641;BME280;4358;42.100;25.222;2023-04-24T12:32:27;99574.91;;;24.12;53.14
8641;BME280;4358;42.100;25.222;2023-04-24T12:34:55;99568.63;;;24.33;54.01
8641;BME280;4358;42.100;25.222;2023-04-24T12:37:24;99563.31;;;24.53;53.50
8641;BME280;4358;42.100;25.222;2023-04-24T12:39:59;99570.00;;;24.91;51.18
8641;BME280;4358;42.100;25.222;2023-04-24T12:42:26;99558.34;;;25.10;48.95
8641;BME280;4358;42.100;25.222;2023-04-24T12:44:56;99554.38;;;25.13;48.25
8641;BME280;4358;42.100;25.222;2023-04-24T12:47:23;99546.69;;;25.23;47.07
8641;BME280;4358;42.100;25.222;2023-04-24T12:49:51;99538.56;;;25.29;46.20
8641;BME280;4358;42.100;25.222;2023-04-24T12:52:17;99530.22;;;25.38;44.63
8641;BME280;4358;42.100;25.222;2023-04-24T12:54:46;99523.53;;;25.40;45.33
8641;BME280;4358;42.100;25.222;2023-04-24T12:57:13;99525.41;;;25.40;44.22
8641;BME280;4358;42.100;25.222;2023-04-24T12:59:40;99526.84;;;25.29;44.14
8641;BME280;4358;42.100;25.222;2023-04-24T13:02:07;99518.69;;;25.29;43.73
8641;BME280;4358;42.100;25.222;2023-04-24T13:04:34;99511.63;;;25.54;43.99
8641;BME280;4358;42.100;25.222;2023-04-24T13:07:01;99512.88;;;25.52;44.87
8641;BME280;4358;42.100;25.222;2023-04-24T13:09:28;99505.38;;;25.54;44.93
8641;BME280;4358;42.100;25.222;2023-04-24T13:11:57;99507.03;;;25.55;45.36
8641;BME280;4358;42.100;25.222;2023-04-24T13:14:24;99493.22;;;25.30;46.02